Time;durP1;ratioP1;P1;durP2;ratioP2;P2;SDS_P1;SDS_P2;PMS_P1;PMS_P2;Temp;Humidity;BMP_temperature;BMP_pressure;BME280_temperature;BME280_humidity;BME280_pressure;Samples;Min_cycle;Max_cycle;Signal;HPM_P1;HPM_P2
2021/09/12 00:01:41;;;;;;;;;22.00;18.50;;;;;17.86;63.92;101789.59;4885124;29;45229;-88
2021/09/12 00:04:06;;;;;;;;;21.50;18.00;;;;;17.94;64.41;101798.09;4885090;29;45257;-89
2021/09/12 00:06:32;;;;;;;;;19.75;19.00;;;;;17.92;64.69;101789.31;4885310;29;45426;-88
2021/09/12 00:08:57;;;;;;;;;21.50;16.00;;;;;17.93;64.27;101785.72;4884682;29;45383;-89
2021/09/12 00:11:23;;;;;;;;;21.25;16.75;;;;;17.99;64.56;101789.88;4885054;29;45321;-88
2021/09/12 00:13:49;;;;;;;;;20.75;17.25;;;;;17.95;64.28;101778.53;4884688;29;45370;-92
2021/09/12 00:16:14;;;;;;;;;19.50;16.75;;;;;18.02;64.32;101794.19;4857616;29;46106;-93
2021/09/12 00:18:40;;;;;;;;;17.50;14.25;;;;;18.02;64.32;101789.75;4867741;29;47111;-90
2021/09/12 00:21:05;;;;;;;;;18.00;14.50;;;;;18.08;64.62;101797.41;4885431;29;45413;-94
2021/09/12 00:23:31;;;;;;;;;14.50;12.50;;;;;18.10;64.66;101786.69;4866180;29;45434;-94
2021/09/12 00:25:57;;;;;;;;;14.00;11.50;;;;;18.15;64.63;101795.31;4885396;29;45510;-94
2021/09/12 00:28:22;;;;;;;;;22.00;14.50;;;;;18.14;64.62;101790.09;4868713;29;48038;-96
2021/09/12 00:30:47;;;;;;;;;20.00;14.00;;;;;18.11;65.03;101783.09;4868124;29;45335;-91
2021/09/12 00:33:13;;;;;;;;;14.50;13.75;;;;;18.15;64.50;101784.69;4885164;29;45639;-91
2021/09/12 00:35:38;;;;;;;;;15.75;14.00;;;;;18.24;64.76;101798.50;4884349;29;45255;-91
2021/09/12 00:38:04;;;;;;;;;15.75;13.50;;;;;18.27;64.64;101796.53;4884546;29;45574;-90
2021/09/12 00:40:29;;;;;;;;;20.75;15.50;;;;;18.25;64.55;101781.63;4884759;29;45216;-90
2021/09/12 00:42:54;;;;;;;;;16.25;15.00;;;;;18.28;64.90;101787.63;4884739;29;45202;-90
2021/09/12 00:45:20;;;;;;;;;16.25;13.75;;;;;18.25;64.73;101779.78;4884873;29;45227;-90
2021/09/12 00:47:46;;;;;;;;;16.25;14.75;;;;;18.30;65.20;101784.88;4884314;29;45664;-91
2021/09/12 00:50:12;;;;;;;;;19.50;14.25;;;;;18.31;64.73;101781.31;4884076;29;45423;-90
2021/09/12 00:52:42;;;;;;;;;14.25;14.25;;;;;18.34;63.58;101778.50;4884391;29;45250;-91
2021/09/12 00:55:10;;;;;;;;;19.50;13.00;;;;;18.35;64.61;101779.38;4884573;29;46453;-91
2021/09/12 00:57:35;;;;;;;;;18.00;14.00;;;;;18.40;64.17;101783.50;4884624;29;45277;-92
2021/09/12 01:00:04;;;;;;;;;13.75;12.50;;;;;18.40;64.91;101775.53;4884298;29;45249;-92
2021/09/12 01:02:29;;;;;;;;;14.75;13.25;;;;;18.40;64.47;101772.00;4867386;29;45440;-92
2021/09/12 01:04:55;;;;;;;;;13.50;13.00;;;;;18.40;64.20;101770.19;4873374;29;45477;-91
2021/09/12 01:07:20;;;;;;;;;13.25;11.25;;;;;18.41;64.78;101766.59;4865575;29;45342;-90
2021/09/12 01:09:45;;;;;;;;;19.25;16.25;;;;;18.44;64.55;101765.59;4878594;29;45413;-84
2021/09/12 01:12:11;;;;;;;;;16.25;14.25;;;;;18.46;64.91;101770.84;4884011;29;45468;-85
2021/09/12 01:14:38;;;;;;;;;13.50;11.50;;;;;18.47;64.51;101772.56;4884025;29;45332;-84
2021/09/12 01:17:04;;;;;;;;;13.50;13.50;;;;;18.45;64.55;101761.97;4884159;29;45257;-87
2021/09/12 01:22:07;;;;;;;;;14.75;13.75;;;;;18.44;64.38;101755.81;5036205;23;45993;-87
2021/09/12 01:24:36;;;;;;;;;16.25;14.50;;;;;18.50;64.43;101759.94;4911778;28;45205;-84
2021/09/12 01:27:02;;;;;;;;;11.50;10.75;;;;;18.51;64.46;101760.81;4917546;28;46213;-87
2021/09/12 01:29:27;;;;;;;;;11.50;11.25;;;;;18.50;64.47;101767.94;4919278;28;45391;-87
2021/09/12 01:31:53;;;;;;;;;10.75;8.25;;;;;18.49;64.16;101768.88;4918315;28;45402;-87
2021/09/12 01:34:18;;;;;;;;;12.00;12.00;;;;;18.46;64.09;101760.19;4915446;28;45486;-90
2021/09/12 01:36:44;;;;;;;;;14.50;13.00;;;;;18.49;64.45;101773.34;4910968;28;46128;-91
2021/09/12 01:39:09;;;;;;;;;15.25;14.50;;;;;18.46;64.59;101761.06;4904194;28;45309;-89
2021/09/12 01:41:35;;;;;;;;;13.75;13.25;;;;;18.51;64.62;101771.47;4918966;28;45364;-92
2021/09/12 01:44:03;;;;;;;;;15.50;14.25;;;;;18.47;64.88;101756.59;4904690;28;46152;-89
2021/09/12 01:46:28;;;;;;;;;16.25;13.75;;;;;18.48;64.87;101760.97;4901522;29;46558;-92
2021/09/12 01:48:57;;;;;;;;;13.00;12.75;;;;;18.48;63.95;101756.50;4903253;28;45225;-90
2021/09/12 01:51:23;;;;;;;;;12.75;12.00;;;;;18.47;64.26;101760.09;4920724;28;45436;-90
2021/09/12 01:53:49;;;;;;;;;13.25;11.00;;;;;18.51;64.56;101764.34;4921809;28;45263;-95
2021/09/12 01:56:15;;;;;;;;;12.25;12.00;;;;;18.50;64.09;101759.94;4904544;28;47278;-95
2021/09/12 01:58:40;;;;;;;;;14.25;13.00;;;;;18.49;64.41;101754.72;4903280;28;45322;-95
2021/09/12 02:01:06;;;;;;;;;14.00;12.50;;;;;18.48;64.80;101752.97;4889040;28;45801;-89
2021/09/12 02:03:31;;;;;;;;;18.25;12.25;;;;;18.44;64.62;101753.16;4919601;28;45477;-87
2021/09/12 02:05:57;;;;;;;;;14.75;13.75;;;;;18.48;64.03;101752.97;4925183;28;46231;-87
2021/09/12 02:08:23;;;;;;;;;14.50;13.00;;;;;18.47;64.73;101756.59;4923075;28;45268;-88
2021/09/12 02:10:48;;;;;;;;;13.50;13.25;;;;;18.49;63.91;101757.38;4914939;28;45236;-88
2021/09/12 02:13:14;;;;;;;;;11.25;10.75;;;;;18.49;64.54;101762.69;4909978;28;45500;-91
2021/09/12 02:15:39;;;;;;;;;15.25;12.75;;;;;18.48;64.43;101756.50;4905226;28;47444;-91
2021/09/12 02:18:06;;;;;;;;;13.25;13.25;;;;;18.44;64.79;101754.94;4904312;28;45555;-90
2021/09/12 02:20:31;;;;;;;;;12.25;12.25;;;;;18.50;64.59;101767.06;4924967;28;45391;-94
2021/09/12 02:22:57;;;;;;;;;13.50;13.00;;;;;18.41;64.68;101755.97;4924918;28;45615;-92
2021/09/12 02:25:22;;;;;;;;;16.50;13.25;;;;;18.42;64.64;101760.31;4912262;28;45623;-92
2021/09/12 02:27:48;;;;;;;;;11.00;8.75;;;;;18.44;64.09;101760.28;4921154;28;45251;-92
2021/09/12 02:30:14;;;;;;;;;13.50;13.50;;;;;18.47;64.23;101772.56;4924989;28;45339;-90
2021/09/12 02:32:39;;;;;;;;;10.25;10.25;;;;;18.48;64.29;101771.59;4915563;28;45354;-96
2021/09/12 02:35:06;;;;;;;;;12.25;11.25;;;;;18.47;63.74;101777.88;4922010;28;47502;-95
2021/09/12 02:37:31;;;;;;;;;10.75;10.00;;;;;18.50;63.79;101783.03;4895810;28;45327;-96
2021/09/12 02:39:57;;;;;;;;;14.25;11.25;;;;;18.51;64.09;101785.63;4908809;28;45390;-95
2021/09/12 02:42:22;;;;;;;;;11.25;10.50;;;;;18.52;62.71;101778.53;4891731;29;47072;-95
2021/09/12 02:44:48;;;;;;;;;12.00;11.00;;;;;18.51;63.91;101782.09;4906004;28;48311;-90
2021/09/12 02:47:13;;;;;;;;;10.00;9.75;;;;;18.52;62.79;101775.88;4916892;28;45469;-90
2021/09/12 02:49:39;;;;;;;;;11.00;10.75;;;;;18.57;61.33;101784.44;4898574;28;45437;-90
2021/09/12 02:52:04;;;;;;;;;10.25;8.00;;;;;18.54;61.19;101771.31;4924302;28;45668;-91
2021/09/12 02:54:30;;;;;;;;;10.25;10.25;;;;;18.61;60.72;101774.53;4920440;28;45292;-93
2021/09/12 02:56:55;;;;;;;;;9.00;7.50;;;;;18.60;60.42;101771.00;4911346;28;45170;-92
2021/09/12 02:59:20;;;;;;;;;11.00;9.50;;;;;18.66;62.03;101780.47;4907700;28;45320;-92
2021/09/12 03:01:46;;;;;;;;;10.25;8.25;;;;;18.66;61.71;101775.16;4906597;28;46144;-92
2021/09/12 03:04:11;;;;;;;;;9.00;8.25;;;;;18.65;61.74;101774.28;4888141;29;47136;-90
2021/09/12 03:06:37;;;;;;;;;7.00;7.00;;;;;18.58;61.72;101767.56;4906989;28;45340;-91
2021/09/12 03:09:02;;;;;;;;;7.25;7.25;;;;;18.57;61.44;101765.81;4907280;28;45358;-91
2021/09/12 03:11:27;;;;;;;;;10.25;9.50;;;;;18.51;60.46;101760.81;4907181;28;45952;-87
2021/09/12 03:13:53;;;;;;;;;4.00;3.75;;;;;18.54;60.67;101766.00;4904016;28;46092;-92
2021/09/12 03:16:19;;;;;;;;;7.00;7.00;;;;;18.54;61.16;101763.34;4910331;28;45427;-92
2021/09/12 03:18:45;;;;;;;;;12.25;8.00;;;;;18.51;61.28;101758.16;4906704;28;45433;-88
2021/09/12 03:21:11;;;;;;;;;8.00;8.00;;;;;18.50;61.28;101753.75;4923835;28;45366;-87
2021/09/12 03:23:37;;;;;;;;;10.00;9.75;;;;;18.50;61.69;101761.75;4894587;28;48029;-91
2021/09/12 03:26:02;;;;;;;;;10.75;8.25;;;;;18.42;61.19;101756.84;4906720;28;45289;-90
2021/09/12 03:28:28;;;;;;;;;8.50;8.50;;;;;18.37;61.91;101748.22;4921213;28;45237;-88
2021/09/12 03:30:53;;;;;;;;;10.75;7.75;;;;;18.39;61.74;101757.84;4924038;28;45270;-94
2021/09/12 03:33:19;;;;;;;;;10.75;8.00;;;;;18.31;61.94;101755.56;4894250;28;47127;-93
2021/09/12 03:35:44;;;;;;;;;7.25;7.00;;;;;18.31;62.49;101757.34;4907329;28;45297;-92
2021/09/12 03:38:13;;;;;;;;;8.00;8.00;;;;;18.18;62.12;101744.63;4921697;28;45154;-96
2021/09/12 03:40:39;;;;;;;;;9.25;9.25;;;;;18.20;62.74;101757.88;4943646;28;45515;-96
2021/09/12 03:43:05;;;;;;;;;8.00;5.00;;;;;18.11;62.40;101753.84;4908846;28;48100;-96
2021/09/12 03:45:30;;;;;;;;;6.75;6.75;;;;;18.11;62.99;101767.16;4890348;29;45320;-96
2021/09/12 03:47:55;;;;;;;;;7.25;6.50;;;;;18.07;62.91;101765.59;4904348;28;45349;-96
2021/09/12 03:50:21;;;;;;;;;8.25;8.25;;;;;18.03;62.59;101763.97;4901273;29;46005;-96
2021/09/12 03:52:46;;;;;;;;;8.50;7.00;;;;;17.99;62.89;101765.94;4920936;28;46999;-90
2021/09/12 03:55:11;;;;;;;;;10.25;10.25;;;;;17.91;63.47;101753.00;4923340;28;45245;-89
2021/09/12 03:57:37;;;;;;;;;9.25;9.25;;;;;17.93;62.88;101756.47;4923513;28;45677;-91
2021/09/12 04:00:07;;;;;;;;;12.00;8.00;;;;;17.92;63.42;101754.75;4923472;28;45328;-90
2021/09/12 04:02:32;;;;;;;;;6.00;5.00;;;;;17.83;63.31;101747.22;4912720;28;46193;-90
2021/09/12 04:04:57;;;;;;;;;7.75;7.00;;;;;17.84;63.57;101751.59;4904023;28;45688;-90
2021/09/12 04:07:23;;;;;;;;;8.75;7.50;;;;;17.83;63.39;101752.53;4903750;29;45492;-94
2021/09/12 04:09:48;;;;;;;;;9.25;7.00;;;;;17.80;63.32;101750.88;4921901;28;45322;-95
2021/09/12 04:12:14;;;;;;;;;10.25;8.00;;;;;17.75;63.78;101747.59;4896438;29;47356;-96
2021/09/12 04:14:39;;;;;;;;;8.25;7.25;;;;;17.66;64.03;101736.44;4905975;28;45406;-96
2021/09/12 04:17:04;;;;;;;;;8.50;8.50;;;;;17.72;63.82;101753.03;4901846;29;45525;-89
2021/09/12 04:19:30;;;;;;;;;9.25;7.00;;;;;17.63;64.26;101741.88;4915110;28;45470;-91
2021/09/12 04:21:55;;;;;;;;;12.00;9.00;;;;;17.62;64.42;101747.28;4922960;28;45355;-87
2021/09/12 04:24:21;;;;;;;;;10.00;8.75;;;;;17.59;63.94;101747.44;4893389;28;45959;-87
2021/09/12 04:26:46;;;;;;;;;9.50;9.50;;;;;17.50;64.87;101736.31;4910650;28;45349;-87
2021/09/12 04:29:12;;;;;;;;;9.50;8.25;;;;;17.44;64.78;101736.59;4922944;28;45736;-88
2021/09/12 04:31:38;;;;;;;;;9.75;8.75;;;;;17.39;64.95;101733.28;4905327;28;47116;-92
2021/09/12 04:34:04;;;;;;;;;10.75;9.25;;;;;17.39;64.87;101743.91;4906167;28;45330;-95
2021/09/12 04:36:29;;;;;;;;;11.25;9.00;;;;;17.30;65.11;101745.19;4920654;28;45542;-94
2021/09/12 04:38:57;;;;;;;;;9.75;9.25;;;;;17.26;65.38;101744.47;4905182;28;46972;-90
2021/09/12 04:41:22;;;;;;;;;11.00;9.00;;;;;17.18;65.15;101744.84;4922843;28;45475;-85
2021/09/12 04:43:48;;;;;;;;;7.00;7.00;;;;;17.20;65.28;101758.03;4917088;28;45272;-96
2021/09/12 04:46:13;;;;;;;;;10.25;9.25;;;;;17.12;65.42;101744.19;4890583;28;45513;-95
2021/09/12 04:48:39;;;;;;;;;9.25;8.00;;;;;17.04;65.84;101740.09;4904097;28;45846;-92
2021/09/12 04:51:04;;;;;;;;;11.75;8.25;;;;;17.00;65.58;101741.16;4913410;28;46187;-92
2021/09/12 04:53:30;;;;;;;;;6.50;6.50;;;;;16.99;65.70;101750.91;4894562;28;45357;-93
2021/09/12 04:55:55;;;;;;;;;10.25;7.25;;;;;16.96;65.60;101751.03;4896035;28;45455;-88
2021/09/12 04:58:21;;;;;;;;;11.50;8.75;;;;;16.92;66.03;101753.91;4922436;28;46144;-91
2021/09/12 05:00:46;;;;;;;;;9.00;9.00;;;;;16.86;65.76;101750.63;4904784;28;47139;-89
2021/09/12 05:03:12;;;;;;;;;10.25;10.25;;;;;16.84;66.10;101763.06;4911442;28;45217;-95
2021/09/12 05:05:37;;;;;;;;;10.25;10.25;;;;;16.81;66.06;101762.34;4891800;29;45393;-91
2021/09/12 05:08:03;;;;;;;;;12.00;10.50;;;;;16.76;65.85;101755.47;4916135;28;45488;-94
2021/09/12 05:10:28;;;;;;;;;13.50;10.75;;;;;16.72;66.04;101759.16;4905422;28;46915;-90
2021/09/12 05:12:54;;;;;;;;;8.50;8.50;;;;;16.68;66.08;101754.91;4924667;28;45255;-91
2021/09/12 05:15:19;;;;;;;;;9.00;9.00;;;;;16.67;66.26;101755.00;4914413;28;45752;-93
2021/09/12 05:17:45;;;;;;;;;10.75;10.25;;;;;16.68;66.46;101767.31;4906861;28;45225;-93
2021/09/12 05:20:11;;;;;;;;;11.50;10.50;;;;;16.62;66.45;101756.03;4921573;28;46461;-92
2021/09/12 05:22:38;;;;;;;;;10.75;10.00;;;;;16.58;66.49;101759.75;4896503;29;45223;-94
2021/09/12 05:25:04;;;;;;;;;8.25;8.25;;;;;16.60;66.60;101759.69;4906333;28;45479;-94
2021/09/12 05:27:29;;;;;;;;;8.75;8.50;;;;;16.56;66.67;101752.78;4920589;28;46521;-93
2021/09/12 05:29:54;;;;;;;;;13.00;10.25;;;;;16.54;66.76;101760.81;4913411;28;46813;-93
2021/09/12 05:32:20;;;;;;;;;11.50;10.75;;;;;16.51;66.91;101755.63;4892570;28;45902;-95
2021/09/12 05:34:45;;;;;;;;;10.75;8.75;;;;;16.53;67.04;101759.06;4898586;29;45425;-95
2021/09/12 05:37:12;;;;;;;;;13.75;11.75;;;;;16.48;66.77;101753.97;4916042;28;45913;-95
2021/09/12 05:39:38;;;;;;;;;11.75;11.75;;;;;16.42;66.87;101754.25;4908541;28;47933;-95
2021/09/12 05:42:04;;;;;;;;;9.75;9.75;;;;;16.41;67.30;101753.38;4922429;28;45236;-95
2021/09/12 05:44:29;;;;;;;;;13.00;11.75;;;;;16.37;67.43;101759.72;4914277;28;45255;-92
2021/09/12 05:46:54;;;;;;;;;8.50;8.25;;;;;16.33;67.71;101755.47;4927745;28;45455;-93
2021/09/12 05:49:20;;;;;;;;;10.75;9.25;;;;;16.35;67.32;101766.88;4909423;28;48172;-94
2021/09/12 05:51:46;;;;;;;;;10.50;10.50;;;;;16.34;67.70;101761.63;4920298;28;45162;-96
2021/09/12 05:54:12;;;;;;;;;16.75;11.50;;;;;16.31;67.49;101755.53;4898651;29;45300;-85
2021/09/12 05:56:37;;;;;;;;;10.50;10.50;;;;;16.29;67.64;101756.53;4923554;28;45488;-85
2021/09/12 05:59:03;;;;;;;;;10.00;9.00;;;;;16.28;67.75;101755.66;4925154;28;45391;-84
2021/09/12 06:01:28;;;;;;;;;12.75;12.75;;;;;16.33;68.02;101763.44;4924822;28;45430;-85
2021/09/12 06:03:54;;;;;;;;;11.25;10.25;;;;;16.27;67.71;101755.72;4924373;28;45452;-84
2021/09/12 06:06:19;;;;;;;;;12.75;11.75;;;;;16.26;67.90;101761.94;4916264;28;45530;-84
2021/09/12 06:08:44;;;;;;;;;11.00;9.75;;;;;16.30;68.15;101766.19;4914374;28;46833;-85
2021/09/12 06:11:10;;;;;;;;;9.00;7.25;;;;;16.29;68.42;101773.31;4924954;28;45415;-84
2021/09/12 06:13:37;;;;;;;;;14.50;11.00;;;;;16.30;68.21;101772.38;4924938;28;45503;-84
2021/09/12 06:16:04;;;;;;;;;11.75;10.50;;;;;16.32;68.37;101777.63;4924867;28;45390;-88
2021/09/12 06:18:29;;;;;;;;;13.25;10.25;;;;;16.32;68.77;101777.63;4915387;28;45518;-87
2021/09/12 06:20:55;;;;;;;;;12.75;10.00;;;;;16.31;68.90;101770.59;4924572;28;45398;-88
2021/09/12 06:23:20;;;;;;;;;13.25;12.25;;;;;16.34;69.07;101775.78;4924692;28;45235;-87
2021/09/12 06:25:46;;;;;;;;;12.00;10.75;;;;;16.34;69.01;101772.25;4912131;28;45428;-87
2021/09/12 06:28:11;;;;;;;;;14.50;11.00;;;;;16.38;69.07;101780.03;4922434;28;46018;-86
2021/09/12 06:30:36;;;;;;;;;12.75;12.25;;;;;16.40;69.27;101774.63;4895443;28;45310;-85
2021/09/12 06:33:02;;;;;;;;;11.00;11.00;;;;;16.42;69.30;101783.44;4917703;28;46065;-84
2021/09/12 06:35:27;;;;;;;;;18.00;15.50;;;;;16.42;69.38;101773.66;4917979;28;45533;-85
2021/09/12 06:37:53;;;;;;;;;14.00;14.00;;;;;16.49;69.28;101781.38;4915027;28;45424;-85
2021/09/12 06:40:18;;;;;;;;;14.00;11.50;;;;;16.49;69.43;101771.63;4922646;28;45335;-85
2021/09/12 06:42:43;;;;;;;;;13.50;11.50;;;;;16.57;69.46;101773.94;4910911;28;45446;-85
2021/09/12 06:45:09;;;;;;;;;17.75;13.00;;;;;16.60;69.16;101773.81;4923872;28;45513;-84
2021/09/12 06:47:35;;;;;;;;;10.50;10.00;;;;;16.60;68.81;101772.94;4920611;28;46089;-85
2021/09/12 06:50:00;;;;;;;;;14.00;14.00;;;;;16.65;68.28;101779.78;4917412;28;45410;-84
2021/09/12 06:52:26;;;;;;;;;13.00;12.50;;;;;16.69;68.81;101772.53;4922649;28;45484;-84
2021/09/12 06:54:51;;;;;;;;;17.50;15.00;;;;;16.81;67.29;101779.16;4911929;28;45444;-85
2021/09/12 06:57:16;;;;;;;;;13.25;13.00;;;;;16.92;66.80;101777.81;4919964;28;46248;-85
2021/09/12 06:59:42;;;;;;;;;15.00;13.50;;;;;16.99;66.33;101772.16;4914510;28;45264;-85
2021/09/12 07:02:11;;;;;;;;;17.00;14.00;;;;;17.10;66.19;101776.16;4895611;29;45685;-87
2021/09/12 07:04:36;;;;;;;;;12.50;12.00;;;;;17.21;66.59;101770.41;4900589;29;47182;-96
2021/09/12 07:07:02;;;;;;;;;12.50;11.50;;;;;17.25;65.55;101760.47;4901662;28;48430;-90
2021/09/12 07:09:30;;;;;;;;;12.50;12.50;;;;;17.36;65.53;101767.97;4929144;28;45341;-95
2021/09/12 07:11:55;;;;;;;;;13.75;13.75;;;;;17.40;66.31;101764.25;4911173;28;45478;-85
2021/09/12 07:14:21;;;;;;;;;7.75;6.50;;;;;17.47;64.92;101763.03;4922548;28;45567;-91
2021/09/12 07:16:46;;;;;;;;;11.75;10.50;;;;;17.56;64.56;101774.19;4923982;28;45405;-89
2021/09/12 07:19:11;;;;;;;;;14.50;12.25;;;;;17.62;64.03;101765.91;4924039;28;45410;-88
2021/09/12 07:21:37;;;;;;;;;11.75;11.00;;;;;17.70;63.47;101760.22;4916955;28;45506;-90
2021/09/12 07:24:03;;;;;;;;;13.75;12.75;;;;;17.75;63.70;101766.19;4913200;28;45620;-91
2021/09/12 07:26:29;;;;;;;;;11.00;10.25;;;;;17.83;62.83;101776.47;4922566;28;47369;-91
2021/09/12 07:28:54;;;;;;;;;14.25;10.50;;;;;17.85;63.09;101769.28;4919433;28;45232;-92
2021/09/12 07:31:19;;;;;;;;;12.00;8.75;;;;;17.92;62.40;101781.34;4916133;28;45286;-92
2021/09/12 07:33:45;;;;;;;;;13.50;11.00;;;;;18.00;63.11;101775.66;4910022;28;45539;-91
2021/09/12 07:36:10;;;;;;;;;15.50;10.50;;;;;18.05;62.45;101775.44;4888806;29;48046;-92
2021/09/12 07:38:36;;;;;;;;;9.25;9.25;;;;;18.13;62.42;101778.56;4905044;29;45173;-91
2021/09/12 07:41:01;;;;;;;;;11.75;10.50;;;;;18.14;62.45;101768.78;4887731;29;45339;-91
2021/09/12 07:43:26;;;;;;;;;11.75;9.50;;;;;18.18;61.53;101771.22;4904670;29;45275;-91
2021/09/12 07:45:52;;;;;;;;;10.25;9.25;;;;;18.26;61.71;101770.03;4905659;28;45451;-91
2021/09/12 07:48:17;;;;;;;;;9.50;7.75;;;;;18.29;60.44;101776.06;4906093;28;45331;-92
2021/09/12 07:50:43;;;;;;;;;8.50;7.50;;;;;18.34;61.61;101775.84;4918899;28;45429;-90
2021/09/12 07:53:09;;;;;;;;;8.75;8.25;;;;;18.36;60.40;101773.97;4915773;28;45335;-92
2021/09/12 07:55:34;;;;;;;;;8.00;7.00;;;;;18.39;60.94;101773.81;4921563;28;45438;-91
2021/09/12 07:57:59;;;;;;;;;9.25;7.00;;;;;18.51;61.86;101788.31;4911276;28;45378;-91
2021/09/12 08:00:25;;;;;;;;;10.25;9.25;;;;;18.62;60.93;101785.09;4921939;28;45345;-93
2021/09/12 08:02:50;;;;;;;;;8.50;7.25;;;;;18.63;60.04;101778.81;4919989;28;45345;-92
2021/09/12 08:05:16;;;;;;;;;8.00;7.50;;;;;18.70;61.15;101781.16;4923007;28;45429;-92
2021/09/12 08:07:41;;;;;;;;;12.00;8.00;;;;;18.78;60.56;101782.50;4921693;28;45334;-92
2021/09/12 08:10:07;;;;;;;;;7.00;7.00;;;;;18.81;59.35;101781.50;4922601;28;46849;-93
2021/09/12 08:12:32;;;;;;;;;7.75;6.25;;;;;18.86;60.28;101782.13;4913303;28;45220;-93
2021/09/12 08:14:58;;;;;;;;;8.25;8.25;;;;;18.89;60.17;101778.41;4899523;29;47175;-93
2021/09/12 08:17:23;;;;;;;;;8.25;8.25;;;;;18.97;59.28;101784.22;4904155;29;45222;-92
2021/09/12 08:19:49;;;;;;;;;8.50;8.25;;;;;19.04;59.58;101784.75;4899485;29;45381;-91
2021/09/12 08:22:14;;;;;;;;;11.00;9.00;;;;;19.06;59.04;101782.84;4915580;28;45269;-92
2021/09/12 08:24:39;;;;;;;;;7.00;7.00;;;;;19.16;58.88;101790.38;4899801;29;46461;-92
2021/09/12 08:27:05;;;;;;;;;10.75;7.00;;;;;19.18;58.01;101791.19;4919627;28;45362;-94
2021/09/12 08:29:30;;;;;;;;;9.75;7.25;;;;;19.21;58.41;101791.03;4922024;28;45188;-91
2021/09/12 08:31:57;;;;;;;;;7.50;7.00;;;;;19.24;57.68;101788.19;4922254;28;45608;-92
2021/09/12 08:34:23;;;;;;;;;7.50;7.50;;;;;19.26;58.08;101788.97;4922932;28;45434;-90
2021/09/12 08:36:49;;;;;;;;;6.25;6.25;;;;;19.30;57.55;101792.34;4923289;28;45374;-92
2021/09/12 08:39:14;;;;;;;;;7.25;7.00;;;;;19.22;56.75;101771.41;4906069;28;45457;-92
2021/09/12 08:41:40;;;;;;;;;7.50;6.25;;;;;19.25;57.77;101781.94;4919787;28;46792;-92
2021/09/12 08:44:07;;;;;;;;;5.50;5.50;;;;;19.34;57.98;101786.75;4901254;28;47122;-92
2021/09/12 08:46:33;;;;;;;;;6.25;4.75;;;;;19.34;57.60;101773.44;4899428;28;45193;-93
2021/09/12 08:48:58;;;;;;;;;7.00;6.75;;;;;19.40;56.50;101788.25;4902952;28;45259;-93
2021/09/12 08:51:24;;;;;;;;;9.75;5.75;;;;;19.42;56.40;101780.16;4911624;28;45169;-91
2021/09/12 08:53:50;;;;;;;;;3.75;3.75;;;;;19.43;55.99;101780.06;4921374;28;45485;-91
2021/09/12 08:56:15;;;;;;;;;5.00;4.00;;;;;19.50;56.22;101783.28;4911465;28;45253;-90
2021/09/12 08:58:40;;;;;;;;;4.25;4.25;;;;;19.53;55.91;101775.06;4895286;28;45615;-89
2021/09/12 09:01:06;;;;;;;;;4.00;4.00;;;;;19.55;55.70;101773.22;4922250;28;45407;-90
2021/09/12 09:03:39;;;;;;;;;6.00;3.00;;;;;19.60;55.10;101774.75;4922051;28;45337;-89
2021/09/12 09:06:17;;;;;;;;;7.25;5.00;;;;;19.63;54.79;101778.09;4908525;28;45428;-90
2021/09/12 09:08:59;;;;;;;;;3.50;3.25;;;;;19.65;54.71;101772.69;4899358;28;45466;-90
2021/09/12 09:11:40;;;;;;;;;4.00;4.00;;;;;19.68;54.17;101778.72;4922338;28;45305;-91
2021/09/12 09:14:11;;;;;;;;;5.00;4.25;;;;;19.66;53.84;101774.41;4913727;28;45685;-91
2021/09/12 09:16:36;;;;;;;;;5.00;3.00;;;;;19.63;54.53;101769.25;4915904;28;45533;-85
2021/09/12 09:19:04;;;;;;;;;5.00;5.00;;;;;19.72;53.42;101776.75;4921439;28;45387;-84
2021/09/12 09:21:41;;;;;;;;;6.50;5.00;;;;;19.77;52.66;101782.69;4915214;28;45488;-85
2021/09/12 09:24:17;;;;;;;;;4.75;3.75;;;;;19.86;54.40;101780.44;4920211;28;45501;-85
2021/09/12 09:26:45;;;;;;;;;4.00;4.00;;;;;19.94;54.89;101783.53;4916051;28;45414;-85
2021/09/12 09:29:12;;;;;;;;;4.00;4.00;;;;;19.95;50.49;101771.91;4922263;28;45233;-85
2021/09/12 09:31:37;;;;;;;;;5.00;3.00;;;;;19.99;51.77;101776.16;4921872;28;45482;-84
2021/09/12 09:34:14;;;;;;;;;5.50;3.25;;;;;20.01;52.86;101779.56;4914918;28;45459;-87
2021/09/12 09:36:39;;;;;;;;;3.00;3.00;;;;;20.06;53.64;101779.31;4915887;28;45457;-86
2021/09/12 09:39:05;;;;;;;;;4.75;4.00;;;;;20.10;52.78;101772.00;4898137;28;45351;-86
2021/09/12 09:41:38;;;;;;;;;4.50;3.75;;;;;20.16;51.78;101781.47;4920634;28;45655;-87
2021/09/12 09:44:09;;;;;;;;;4.00;3.25;;;;;20.18;52.30;101776.91;4909792;28;45355;-86
2021/09/12 09:46:41;;;;;;;;;4.75;4.00;;;;;20.21;52.92;101780.28;4904432;28;45965;-86
2021/09/12 09:49:28;;;;;;;;;4.75;3.25;;;;;20.27;53.14;101767.53;4921909;28;45405;-86
2021/09/12 09:52:01;;;;;;;;;3.25;3.00;;;;;20.29;54.07;101765.63;4915568;28;45305;-86
2021/09/12 09:54:31;;;;;;;;;4.50;4.00;;;;;20.36;50.69;101766.97;4903085;28;45563;-89
2021/09/12 09:56:58;;;;;;;;;5.00;5.00;;;;;20.31;48.53;101763.72;4917781;28;45278;-89
2021/09/12 09:59:25;;;;;;;;;4.50;4.50;;;;;20.35;50.26;101770.59;4920566;28;45407;-90
2021/09/12 10:01:52;;;;;;;;;4.25;3.25;;;;;20.39;51.33;101766.81;4893638;29;46337;-90
2021/09/12 10:04:28;;;;;;;;;5.00;5.00;;;;;20.40;52.09;101760.50;4916763;28;48097;-90
2021/09/12 10:06:55;;;;;;;;;4.00;4.00;;;;;20.42;49.81;101753.25;4902131;28;45205;-90
2021/09/12 10:09:20;;;;;;;;;7.50;4.00;;;;;20.46;50.29;101765.50;4917561;28;45563;-90
2021/09/12 10:11:54;;;;;;;;;3.50;3.25;;;;;20.50;50.95;101762.63;4904847;28;46041;-89
2021/09/12 10:14:28;;;;;;;;;4.00;4.00;;;;;20.48;50.64;101759.19;4913982;28;45212;-91
2021/09/12 10:16:55;;;;;;;;;4.00;4.00;;;;;20.51;51.67;101756.34;4918886;28;45530;-88
2021/09/12 10:19:41;;;;;;;;;5.00;5.00;;;;;20.53;51.66;101755.31;4904799;28;45462;-90
2021/09/12 10:22:19;;;;;;;;;4.75;3.75;;;;;20.61;52.70;101749.50;4921329;28;45640;-91
2021/09/12 10:25:00;;;;;;;;;3.00;3.00;;;;;20.68;51.46;101758.00;4905256;28;48222;-90
2021/09/12 10:27:45;;;;;;;;;5.00;5.00;;;;;20.67;51.98;101753.59;4905751;28;45515;-90
2021/09/12 10:30:22;;;;;;;;;6.00;6.00;;;;;20.69;50.87;101749.06;4905818;28;45236;-89
2021/09/12 10:32:51;;;;;;;;;3.00;3.00;;;;;20.72;51.17;101746.19;4923813;28;45594;-92
2021/09/12 10:35:17;;;;;;;;;6.00;6.00;;;;;20.76;49.68;101745.06;4896532;28;48287;-91
2021/09/12 10:38:15;;;;;;;;;4.25;4.25;;;;;20.80;50.65;101740.38;4907382;28;46043;-90
2021/09/12 10:40:46;;;;;;;;;6.75;5.25;;;;;20.88;48.46;101754.13;4917648;28;45406;-88
2021/09/12 10:43:24;;;;;;;;;6.25;4.50;;;;;20.91;50.22;101750.41;4891432;28;45550;-89
2021/09/12 10:46:02;;;;;;;;;4.50;4.50;;;;;20.96;50.51;101747.47;4923627;28;45432;-88
2021/09/12 10:48:29;;;;;;;;;5.00;5.00;;;;;20.98;51.10;101740.19;4899557;29;45581;-88
2021/09/12 10:50:55;;;;;;;;;4.25;4.25;;;;;20.96;50.92;101726.09;4916680;28;45355;-88
2021/09/12 10:53:45;;;;;;;;;5.00;4.00;;;;;21.06;49.98;101737.09;4923972;28;45365;-88
2021/09/12 10:56:13;;;;;;;;;5.00;5.00;;;;;21.06;49.40;101740.63;4923778;28;46307;-88
2021/09/12 10:58:39;;;;;;;;;7.00;4.25;;;;;21.04;50.01;101739.84;4916165;28;45324;-87
2021/09/12 11:01:06;;;;;;;;;7.25;5.00;;;;;21.02;50.95;101737.28;4922847;28;45389;-88
2021/09/12 11:03:34;;;;;;;;;7.00;7.00;;;;;21.05;51.34;101738.91;4923904;28;45361;-88
2021/09/12 11:06:00;;;;;;;;;5.50;5.50;;;;;21.06;51.27;101729.06;4924081;28;46481;-87
2021/09/12 11:08:37;;;;;;;;;5.50;5.00;;;;;21.12;51.18;101732.22;4924064;28;45525;-87
2021/09/12 11:11:04;;;;;;;;;7.75;6.75;;;;;21.07;50.76;101717.41;4924219;28;45506;-87
2021/09/12 11:13:31;;;;;;;;;6.50;5.25;;;;;21.12;51.37;101723.34;4911438;28;45471;-87
2021/09/12 11:16:16;;;;;;;;;7.75;7.00;;;;;21.10;51.14;101720.75;4916954;28;45578;-87
2021/09/12 11:18:45;;;;;;;;;7.25;7.25;;;;;21.09;51.05;101721.72;4923925;28;45615;-86